Time;durP1;ratioP1;P1;durP2;ratioP2;P2;SDS_P1;SDS_P2;PMS_P1;PMS_P2;Temp;Humidity;BMP_temperature;BMP_pressure;BME280_temperature;BME280_humidity;BME280_pressure;Samples;Min_cycle;Max_cycle;Signal;HPM_P1;HPM_P2
2023/02/01 00:02:34;;;;;;;5.50;3.05;;;;;;;7.56;75.22;100797.94;10266260;28;20054;-57
2023/02/01 00:07:37;;;;;;;5.82;2.17;;;;;;;7.61;75.53;100792.16;10263702;28;20055;-56
2023/02/01 00:12:38;;;;;;;4.85;2.70;;;;;;;7.71;75.64;100806.34;10266485;28;20074;-57
2023/02/01 00:17:39;;;;;;;4.70;2.38;;;;;;;7.73;75.19;100796.34;10262380;28;20054;-55
2023/02/01 00:22:41;;;;;;;5.85;2.20;;;;;;;7.75;75.32;100797.03;10263472;28;20106;-57
2023/02/01 00:27:42;;;;;;;7.22;3.63;;;;;;;7.79;75.09;100793.09;10268209;28;20054;-55
2023/02/01 00:32:44;;;;;;;4.47;2.88;;;;;;;7.79;75.55;100790.41;10264828;28;20530;-58
2023/02/01 00:37:45;;;;;;;9.50;3.28;;;;;;;7.81;75.09;100777.72;10249470;28;20046;-55
2023/02/01 00:42:46;;;;;;;4.88;3.05;;;;;;;7.85;75.22;100783.63;10261926;28;20141;-56
2023/02/01 00:47:48;;;;;;;5.82;3.30;;;;;;;7.87;74.99;100771.78;10263724;28;20067;-58
2023/02/01 00:52:49;;;;;;;6.65;3.05;;;;;;;7.80;74.72;100781.41;10242793;28;20058;-56
2023/02/01 00:57:51;;;;;;;4.70;3.10;;;;;;;7.89;74.92;100791.19;10262445;28;20079;-57
2023/02/01 01:02:52;;;;;;;6.38;3.35;;;;;;;7.88;74.92;100767.28;10261950;28;20074;-58
2023/02/01 01:07:53;;;;;;;7.28;2.95;;;;;;;7.90;75.04;100778.69;10257864;28;20098;-58
2023/02/01 01:12:55;;;;;;;5.18;2.67;;;;;;;7.89;74.58;100780.50;10244001;28;20125;-58
2023/02/01 01:17:56;;;;;;;3.10;2.50;;;;;;;7.88;74.70;100764.59;10263319;28;20086;-59
2023/02/01 01:22:57;;;;;;;5.93;3.05;;;;;;;7.85;75.06;100770.25;10263252;28;20078;-60
2023/02/01 01:27:59;;;;;;;5.03;3.00;;;;;;;7.88;74.77;100772.63;10259851;28;20122;-59
2023/02/01 01:33:00;;;;;;;4.63;3.08;;;;;;;7.90;75.06;100770.66;10266517;28;20059;-59
2023/02/01 01:38:02;;;;;;;7.60;3.97;;;;;;;7.92;74.30;100755.28;10259895;28;20474;-60
2023/02/01 01:43:13;;;;;;;6.30;2.97;;;;;;;7.93;74.38;100756.97;10259675;28;20134;-60
2023/02/01 01:48:17;;;;;;;7.65;4.13;;;;;;;7.89;74.55;100758.25;10261399;28;20078;-59
2023/02/01 01:53:26;;;;;;;6.35;3.33;;;;;;;7.88;75.13;100756.59;10256738;28;20509;-57
2023/02/01 01:58:32;;;;;;;14.35;5.40;;;;;;;7.88;74.60;100746.72;10257039;28;20117;-57
2023/02/01 02:03:40;;;;;;;9.40;4.18;;;;;;;7.88;74.80;100740.53;10258791;28;20158;-62
2023/02/01 02:08:41;;;;;;;5.78;3.67;;;;;;;7.86;74.44;100713.91;10257347;28;20110;-62
2023/02/01 02:13:48;;;;;;;9.32;3.95;;;;;;;7.83;74.65;100710.66;10256992;28;20042;-63
2023/02/01 02:19:19;;;;;;;7.95;4.30;;;;;;;7.82;74.79;100712.50;10258783;28;20083;-62
2023/02/01 02:24:51;;;;;;;7.38;4.70;;;;;;;7.80;74.35;100716.31;10265419;28;20141;-65
2023/02/01 02:30:14;;;;;;;9.88;4.55;;;;;;;7.75;75.20;100730.16;10268501;28;20118;-65
2023/02/01 02:35:46;;;;;;;9.57;5.05;;;;;;;7.79;74.54;100731.53;10265408;28;20126;-63
2023/02/01 02:40:58;;;;;;;8.82;5.38;;;;;;;7.83;74.89;100730.25;10264642;28;20058;-62
2023/02/01 03:08:20;;;;;;;10.85;4.43;;;;;;;7.94;74.63;100705.97;10263536;28;20055;-63
2023/02/01 03:13:31;;;;;;;10.57;5.50;;;;;;;7.90;74.70;100701.91;10265637;28;20054;-65
2023/02/01 03:18:35;;;;;;;8.18;4.88;;;;;;;7.84;74.75;100702.50;10261542;28;20121;-64
2023/02/01 03:23:38;;;;;;;7.43;5.05;;;;;;;7.84;75.15;100694.47;10266124;28;20055;-63
2023/02/01 03:28:47;;;;;;;12.65;5.80;;;;;;;7.85;74.58;100689.94;10266487;28;20090;-64
2023/02/01 03:33:49;;;;;;;9.32;5.72;;;;;;;7.88;74.55;100695.03;10257117;28;20075;-62
2023/02/01 03:39:03;;;;;;;7.57;4.90;;;;;;;7.83;74.69;100684.75;10265774;28;20051;-60
2023/02/01 03:44:17;;;;;;;10.65;5.00;;;;;;;7.83;74.99;100686.59;10263337;28;20067;-64
2023/02/01 03:49:26;;;;;;;10.25;4.35;;;;;;;7.82;74.90;100699.13;10256522;28;20577;-64
2023/02/01 03:54:28;;;;;;;10.70;5.05;;;;;;;7.86;75.54;100684.47;10262773;28;20081;-64
2023/02/01 03:59:30;;;;;;;8.07;3.60;;;;;;;7.85;75.27;100679.25;10262033;28;20129;-63
2023/02/01 04:04:33;;;;;;;9.48;4.15;;;;;;;7.86;74.67;100665.72;10260564;28;20137;-64
2023/02/01 04:09:34;;;;;;;8.05;3.47;;;;;;;7.83;74.82;100678.56;10260341;28;20093;-63
2023/02/01 04:14:35;;;;;;;6.90;2.95;;;;;;;7.82;75.64;100677.72;10260585;28;20121;-63
2023/02/01 04:19:37;;;;;;;8.77;4.47;;;;;;;7.85;75.52;100679.25;10261463;28;20050;-64
2023/02/01 04:24:38;;;;;;;7.75;4.07;;;;;;;7.84;75.48;100690.94;10261289;28;20546;-64
2023/02/01 04:29:40;;;;;;;11.75;4.20;;;;;;;7.86;75.73;100689.81;10261625;28;20133;-64
2023/02/01 04:34:42;;;;;;;9.20;4.20;;;;;;;7.88;75.71;100695.84;10260934;28;20066;-65
2023/02/01 04:39:43;;;;;;;11.43;4.90;;;;;;;7.92;75.12;100686.53;10260047;28;20087;-62
2023/02/01 04:44:45;;;;;;;11.45;5.38;;;;;;;7.85;75.51;100681.94;10258288;28;20046;-63
2023/02/01 04:49:46;;;;;;;10.88;4.53;;;;;;;7.82;75.10;100677.72;10256789;28;20055;-65
2023/02/01 04:54:48;;;;;;;10.60;4.32;;;;;;;7.82;75.12;100671.50;10263577;28;20083;-65
2023/02/01 04:59:49;;;;;;;9.25;4.07;;;;;;;7.78;75.91;100657.59;10261134;28;20105;-66
2023/02/01 05:04:50;;;;;;;9.05;3.92;;;;;;;7.77;75.21;100665.78;10254692;28;20105;-64
2023/02/01 05:09:52;;;;;;;8.52;4.32;;;;;;;7.80;75.60;100673.50;10261956;28;20051;-61
2023/02/01 05:14:53;;;;;;;9.73;4.25;;;;;;;7.81;75.10;100665.31;10257857;28;20134;-64
2023/02/01 05:19:55;;;;;;;8.48;3.60;;;;;;;7.83;75.56;100659.81;10257211;28;20051;-65
2023/02/01 05:24:56;;;;;;;9.25;4.20;;;;;;;7.85;75.30;100655.16;10260849;28;20082;-60
2023/02/01 05:29:57;;;;;;;10.10;4.00;;;;;;;7.86;75.54;100667.53;10261008;28;20137;-60
2023/02/01 05:34:59;;;;;;;6.60;3.28;;;;;;;7.84;75.00;100666.84;10241180;28;20098;-61
2023/02/01 05:40:00;;;;;;;11.93;3.95;;;;;;;7.92;75.21;100665.13;10259460;28;20168;-59
2023/02/01 05:45:02;;;;;;;8.18;3.58;;;;;;;7.83;75.42;100657.16;10256893;28;20122;-60
2023/02/01 05:50:04;;;;;;;9.75;3.53;;;;;;;7.77;75.26;100663.94;10254983;28;20149;-60
2023/02/01 05:55:07;;;;;;;7.28;3.30;;;;;;;7.72;74.96;100656.38;10257125;28;20137;-60
2023/02/01 06:00:09;;;;;;;5.38;2.90;;;;;;;7.61;75.02;100632.50;10261629;28;20043;-61
2023/02/01 06:05:10;;;;;;;5.75;2.60;;;;;;;7.54;75.51;100644.78;10257812;28;20130;-60
2023/02/01 06:10:12;;;;;;;13.35;2.83;;;;;;;7.49;75.30;100639.88;10262045;28;20059;-61
2023/02/01 06:15:18;;;;;;;8.85;2.63;;;;;;;7.54;74.70;100640.28;10258860;28;20051;-60
2023/02/01 06:20:19;;;;;;;15.27;3.67;;;;;;;7.49;74.19;100645.22;10256572;28;20078;-61
2023/02/01 06:25:21;;;;;;;12.07;2.00;;;;;;;7.52;74.84;100650.28;10257990;28;20117;-60
2023/02/01 06:30:22;;;;;;;8.73;2.72;;;;;;;7.45;74.27;100656.38;10265185;28;20052;-60
2023/02/01 06:35:25;;;;;;;7.78;1.88;;;;;;;7.42;74.01;100652.16;10252694;28;20047;-60
2023/02/01 06:40:27;;;;;;;10.55;2.30;;;;;;;7.40;73.78;100654.13;10253846;28;20097;-63
2023/02/01 06:45:28;;;;;;;11.05;1.58;;;;;;;7.41;74.08;100657.66;10253487;28;20059;-63
2023/02/01 06:50:30;;;;;;;7.88;1.70;;;;;;;7.43;73.44;100661.88;10259939;28;20055;-62
2023/02/01 06:55:31;;;;;;;7.93;1.83;;;;;;;7.39;73.37;100662.31;10255675;28;20063;-62
2023/02/01 07:00:32;;;;;;;8.30;1.50;;;;;;;7.28;73.40;100674.03;10253471;28;20545;-63
2023/02/01 07:05:34;;;;;;;16.90;3.00;;;;;;;7.32;73.63;100654.03;10251829;28;20069;-62
2023/02/01 07:10:37;;;;;;;13.25;2.30;;;;;;;7.31;72.61;100647.00;10265832;28;20086;-62
2023/02/01 07:15:38;;;;;;;11.95;2.33;;;;;;;7.29;73.55;100640.97;10242297;28;20498;-63
2023/02/01 07:20:40;;;;;;;13.80;2.03;;;;;;;7.18;73.41;100631.28;10264972;28;20099;-61
2023/02/01 07:25:41;;;;;;;8.68;1.52;;;;;;;7.18;73.57;100652.69;10260433;28;20530;-64
2023/02/01 07:30:43;;;;;;;13.48;1.95;;;;;;;7.14;73.29;100673.50;10265603;28;20082;-63
2023/02/01 07:35:45;;;;;;;9.65;2.05;;;;;;;7.14;73.27;100678.84;10258757;28;20051;-62
2023/02/01 07:40:47;;;;;;;8.57;1.58;;;;;;;7.13;73.32;100687.88;10261995;28;20066;-62
2023/02/01 07:45:52;;;;;;;13.68;2.47;;;;;;;7.12;72.85;100691.53;10264446;28;20078;-62
2023/02/01 07:51:03;;;;;;;9.75;1.27;;;;;;;7.19;72.35;100698.97;10263383;28;20062;-63
2023/02/01 07:56:14;;;;;;;10.07;1.70;;;;;;;7.15;71.86;100703.78;10262440;28;20099;-62
2023/02/01 08:01:20;;;;;;;11.60;1.63;;;;;;;7.12;71.29;100696.03;10262587;28;20059;-63
2023/02/01 08:06:23;;;;;;;13.38;1.50;;;;;;;7.22;70.43;100698.69;10263175;28;20145;-62
2023/02/01 08:11:25;;;;;;;10.23;1.00;;;;;;;7.35;69.67;100702.72;10263084;28;20051;-62
2023/02/01 08:16:27;;;;;;;7.53;1.83;;;;;;;7.40;68.67;100706.78;10257932;28;20083;-62
2023/02/01 08:21:48;;;;;;;6.78;1.98;;;;;;;7.52;68.00;100718.97;10257125;28;20051;-61
2023/02/01 08:26:49;;;;;;;11.60;1.30;;;;;;;7.67;67.09;100719.34;10260475;28;20075;-62
2023/02/01 08:31:51;;;;;;;10.10;0.93;;;;;;;7.74;66.76;100729.31;10260578;28;20062;-62
2023/02/01 08:36:57;;;;;;;10.70;1.50;;;;;;;7.90;66.20;100722.47;10261699;28;20058;-62
2023/02/01 08:47:18;;;;;;;6.38;1.27;;;;;;;8.10;64.56;100726.72;10243430;28;20051;-62
2023/02/01 08:52:20;;;;;;;6.28;0.80;;;;;;;8.23;63.49;100725.50;10264410;23;20055;-61
2023/02/01 08:57:21;;;;;;;6.18;1.17;;;;;;;8.34;63.53;100730.66;10262480;28;20051;-61
2023/02/01 09:02:23;;;;;;;9.02;0.80;;;;;;;8.47;63.60;100730.28;10260833;28;20057;-61
2023/02/01 09:07:24;;;;;;;8.38;1.05;;;;;;;8.46;62.38;100729.44;10261784;28;20101;-61
2023/02/01 09:12:28;;;;;;;8.25;1.58;;;;;;;8.46;62.41;100732.13;10257710;28;20577;-64
2023/02/01 09:17:29;;;;;;;3.25;1.30;;;;;;;8.45;61.28;100717.06;10260688;28;20505;-64
2023/02/01 09:22:31;;;;;;;10.73;2.67;;;;;;;8.62;61.33;100731.44;10258844;28;20063;-63
2023/02/01 09:27:33;;;;;;;10.63;1.30;;;;;;;8.66;61.93;100742.69;10257397;28;20501;-64
2023/02/01 09:32:35;;;;;;;8.35;0.98;;;;;;;8.69;61.67;100753.13;10259439;28;20082;-62
2023/02/01 09:37:37;;;;;;;11.57;1.60;;;;;;;8.72;61.72;100764.34;10258902;28;20050;-62
2023/02/01 09:43:15;;;;;;;9.70;1.05;;;;;;;8.80;61.45;100768.13;10261386;28;20058;-63
2023/02/01 09:48:21;;;;;;;13.87;1.60;;;;;;;8.95;61.56;100776.47;10256112;28;20055;-63
2023/02/01 09:53:30;;;;;;;11.50;1.87;;;;;;;8.96;61.12;100770.09;10255870;28;20047;-63
2023/02/01 09:58:42;;;;;;;11.80;2.13;;;;;;;9.10;61.39;100759.66;10254828;28;20298;-62
2023/02/01 10:03:44;;;;;;;18.95;2.10;;;;;;;9.12;61.84;100765.72;10260346;28;20051;-63
2023/02/01 10:08:59;;;;;;;4.70;0.90;;;;;;;9.15;62.20;100752.97;10255908;28;20062;-62
2023/02/01 10:14:14;;;;;;;12.60;2.15;;;;;;;9.08;61.08;100755.44;10253988;28;20696;-62
2023/02/01 10:19:35;;;;;;;7.15;1.15;;;;;;;9.27;61.22;100744.50;10257737;28;20074;-64
2023/02/01 10:24:42;;;;;;;7.53;1.15;;;;;;;9.29;61.45;100745.19;10258135;28;20087;-62
2023/02/01 10:29:48;;;;;;;8.88;1.40;;;;;;;9.35;61.29;100726.78;10257637;28;20459;-62
2023/02/01 10:34:57;;;;;;;7.18;0.60;;;;;;;9.36;61.11;100723.09;10244642;28;20073;-62
2023/02/01 10:40:15;;;;;;;9.70;1.58;;;;;;;9.35;61.15;100726.78;10258097;28;20090;-63
2023/02/01 10:45:20;;;;;;;7.63;0.93;;;;;;;9.32;61.40;100736.84;10266354;28;20121;-62
2023/02/01 10:50:36;;;;;;;5.70;0.90;;;;;;;9.27;60.65;100728.41;10264245;28;20059;-61
2023/02/01 10:55:49;;;;;;;9.13;1.02;;;;;;;9.28;60.76;100722.06;10258164;28;20046;-63
2023/02/01 11:00:57;;;;;;;5.95;1.20;;;;;;;9.28;60.90;100722.06;10264657;28;20518;-62
2023/02/01 11:06:00;;;;;;;7.75;1.20;;;;;;;9.29;60.63;100723.72;10262361;28;20055;-62
2023/02/01 11:11:05;;;;;;;7.78;1.42;;;;;;;9.37;60.64;100711.38;10258915;28;20485;-62
2023/02/01 11:16:12;;;;;;;6.47;0.90;;;;;;;9.29;60.31;100704.94;10259919;28;20058;-62
2023/02/01 11:21:14;;;;;;;8.10;2.53;;;;;;;9.33;60.56;100711.69;10258111;28;20054;-62
2023/02/01 11:26:23;;;;;;;7.50;1.10;;;;;;;9.36;60.48;100699.81;10261171;28;20055;-62
2023/02/01 11:31:27;;;;;;;11.60;1.02;;;;;;;9.45;60.47;100693.47;10252616;28;20070;-62
2023/02/01 11:36:32;;;;;;;11.57;1.23;;;;;;;9.45;60.35;100698.81;10267229;28;20483;-61
2023/02/01 11:41:43;;;;;;;15.40;1.45;;;;;;;9.30;60.18;100700.41;10265728;28;20062;-61
2023/02/01 11:46:44;;;;;;;7.05;0.98;;;;;;;9.43;60.30;100700.84;10264015;28;20058;-61
2023/02/01 11:52:18;;;;;;;9.27;1.10;;;;;;;9.43;60.52;100694.63;10260017;28;20481;-61
2023/02/01 11:57:53;;;;;;;8.88;1.30;;;;;;;9.39;60.13;100688.72;10264604;28;20074;-62
2023/02/01 12:03:15;;;;;;;7.07;1.20;;;;;;;9.47;60.04;100686.09;10264519;28;20554;-62
2023/02/01 12:08:47;;;;;;;5.90;0.75;;;;;;;9.39;59.01;100680.69;10264741;28;20055;-61
2023/02/01 12:14:26;;;;;;;11.90;1.38;;;;;;;9.56;59.10;100672.69;10261407;28;20719;-62
2023/02/01 12:19:55;;;;;;;13.48;1.27;;;;;;;9.62;59.07;100664.03;10239240;28;20070;-62
2023/02/01 12:25:33;;;;;;;7.43;0.68;;;;;;;9.65;58.72;100667.22;10263207;28;20063;-63
2023/02/01 12:31:06;;;;;;;7.13;0.90;;;;;;;9.73;58.30;100672.63;10252063;28;20073;-63
2023/02/01 12:36:25;;;;;;;6.30;1.55;;;;;;;9.69;58.13;100670.41;10264977;28;20058;-62
2023/02/01 12:41:45;;;;;;;3.97;1.05;;;;;;;9.72;58.37;100660.19;10264745;28;20070;-62
2023/02/01 12:46:53;;;;;;;14.55;2.67;;;;;;;9.69;57.08;100654.31;10258260;28;20067;-62
2023/02/01 12:52:00;;;;;;;10.55;1.17;;;;;;;9.86;57.16;100648.00;10260992;28;20463;-62
2023/02/01 12:57:15;;;;;;;3.70;0.47;;;;;;;9.70;56.37;100648.78;10258413;28;20451;-62
2023/02/01 13:02:27;;;;;;;4.97;0.80;;;;;;;9.71;56.40;100633.50;10239037;28;20478;-61
2023/02/01 13:07:39;;;;;;;6.63;1.02;;;;;;;9.80;56.19;100643.28;10253336;28;20051;-63
2023/02/01 13:12:48;;;;;;;12.73;1.63;;;;;;;9.75;55.87;100617.91;10256164;28;20035;-63
2023/02/01 13:17:53;;;;;;;6.05;0.60;;;;;;;9.89;55.64;100633.38;10266782;28;20075;-62
2023/02/01 13:23:01;;;;;;;3.22;0.80;;;;;;;9.91;55.20;100618.81;10260456;28;20046;-62
2023/02/01 13:28:23;;;;;;;9.85;0.90;;;;;;;9.81;55.06;100622.63;10259259;28;20054;-63
2023/02/01 13:33:38;;;;;;;5.43;1.13;;;;;;;9.78;54.83;100622.97;10257746;28;20098;-63
2023/02/01 13:39:33;;;;;;;2.55;0.82;;;;;;;9.82;54.94;100602.84;10258688;28;20130;-63
2023/02/01 13:44:50;;;;;;;5.25;0.43;;;;;;;9.77;54.60;100600.63;10265102;28;20043;-63
2023/02/01 13:49:54;;;;;;;7.90;0.73;;;;;;;9.94;54.38;100598.84;10256742;28;20142;-63
2023/02/01 13:55:24;;;;;;;8.85;0.70;;;;;;;9.86;53.88;100596.97;10258294;28;20105;-62
2023/02/01 14:00:35;;;;;;;5.90;0.50;;;;;;;9.86;53.89;100591.59;10242209;28;20055;-62
2023/02/01 14:05:37;;;;;;;6.88;0.85;;;;;;;9.95;53.54;100586.25;10254237;28;20118;-62
2023/02/01 14:10:45;;;;;;;7.22;0.75;;;;;;;9.86;53.60;100572.81;10256099;28;20138;-62
2023/02/01 14:16:04;;;;;;;6.07;0.77;;;;;;;10.02;53.32;100565.78;10257223;28;20047;-62
2023/02/01 14:21:18;;;;;;;5.38;1.85;;;;;;;10.09;52.90;100558.72;10259320;28;20194;-62
2023/02/01 14:26:43;;;;;;;8.18;0.98;;;;;;;10.16;53.16;100570.47;10253466;28;20465;-62
2023/02/01 14:32:12;;;;;;;5.90;0.55;;;;;;;10.04;53.09;100556.53;10255020;28;20058;-62
2023/02/01 14:37:16;;;;;;;4.10;1.05;;;;;;;10.02;52.60;100539.75;10245835;28;20085;-64
2023/02/01 14:42:25;;;;;;;3.88;0.45;;;;;;;10.14;52.99;100540.25;10263717;28;20058;-64
2023/02/01 14:47:29;;;;;;;5.05;0.85;;;;;;;10.04;52.81;100545.78;10256519;28;20051;-62
2023/02/01 14:52:45;;;;;;;5.05;0.77;;;;;;;10.00;52.72;100565.94;10256625;28;20197;-62
2023/02/01 14:57:50;;;;;;;6.85;0.50;;;;;;;10.04;52.90;100553.84;10254347;28;21260;-64
2023/02/01 15:02:53;;;;;;;4.15;0.50;;;;;;;9.93;53.01;100552.34;10258443;28;20118;-63
2023/02/01 15:07:55;;;;;;;3.97;0.63;;;;;;;9.88;53.81;100572.66;10256269;28;20073;-63
2023/02/01 15:13:00;;;;;;;9.43;1.65;;;;;;;9.64;54.48;100568.91;10257369;28;20554;-62
2023/02/01 15:18:01;;;;;;;7.32;0.88;;;;;;;9.58;54.95;100580.31;10259159;28;20085;-61
2023/02/01 15:23:05;;;;;;;6.82;0.82;;;;;;;9.31;56.55;100582.22;10254083;28;20058;-64
2023/02/01 15:28:14;;;;;;;3.80;0.32;;;;;;;9.36;56.78;100570.16;10258322;28;20047;-62
2023/02/01 15:33:17;;;;;;;4.93;0.68;;;;;;;9.24;57.03;100565.13;10264127;28;20070;-62
2023/02/01 15:38:23;;;;;;;4.20;0.93;;;;;;;9.25;56.93;100582.03;10266901;28;20047;-62
2023/02/01 15:43:26;;;;;;;5.93;0.40;;;;;;;9.24;57.36;100578.53;10269914;28;20082;-62
2023/02/01 15:48:36;;;;;;;4.78;0.50;;;;;;;9.18;57.32;100594.41;10267919;28;20054;-62
2023/02/01 15:53:37;;;;;;;6.50;1.00;;;;;;;9.09;57.91;100612.31;10270193;28;20102;-64
2023/02/01 15:58:42;;;;;;;8.45;1.17;;;;;;;9.07;58.11;100615.16;10265035;28;20059;-63
2023/02/01 16:03:46;;;;;;;10.75;0.68;;;;;;;9.10;57.91;100611.28;10265325;28;20043;-65
2023/02/01 16:08:54;;;;;;;9.80;0.57;;;;;;;9.10;58.12;100609.47;10265731;28;20126;-62
2023/02/01 16:14:00;;;;;;;9.65;0.68;;;;;;;9.03;58.99;100611.09;10264169;28;20485;-63
2023/02/01 16:19:01;;;;;;;2.97;0.60;;;;;;;8.88;59.78;100610.84;10270910;28;20055;-62
2023/02/01 16:24:03;;;;;;;6.88;1.15;;;;;;;8.87;60.53;100603.81;10262644;28;20062;-62
2023/02/01 16:29:08;;;;;;;3.60;0.50;;;;;;;8.79;60.51;100600.22;10263973;28;20054;-62
2023/02/01 16:34:15;;;;;;;4.10;0.50;;;;;;;8.80;60.57;100594.72;10261580;28;20050;-62
2023/02/01 16:39:17;;;;;;;4.78;0.50;;;;;;;8.84;60.39;100609.47;10262019;28;20577;-63
2023/02/01 16:44:18;;;;;;;5.72;0.88;;;;;;;8.90;60.18;100603.47;10264985;28;20090;-59
2023/02/01 16:49:23;;;;;;;11.82;1.63;;;;;;;8.95;59.42;100594.16;10262034;28;20142;-60
2023/02/01 16:54:24;;;;;;;11.60;0.98;;;;;;;8.98;59.42;100591.13;10261747;28;20042;-60
2023/02/01 16:59:25;;;;;;;4.88;0.40;;;;;;;9.00;58.88;100586.44;10263655;28;20058;-59
2023/02/01 17:04:27;;;;;;;2.22;0.30;;;;;;;9.02;58.65;100582.59;10250833;28;20055;-59
2023/02/01 17:09:29;;;;;;;4.40;0.63;;;;;;;9.04;58.73;100582.44;10263346;28;20043;-61
2023/02/01 17:14:40;;;;;;;2.88;0.75;;;;;;;8.93;59.28;100575.53;10259732;28;20105;-60
2023/02/01 17:19:42;;;;;;;9.05;0.47;;;;;;;8.88;60.18;100589.41;10260944;28;20101;-59
2023/02/01 17:24:45;;;;;;;2.17;0.35;;;;;;;8.78;60.42;100587.84;10263224;28;20544;-60
2023/02/01 17:29:50;;;;;;;3.05;0.75;;;;;;;8.38;62.90;100599.94;10265895;28;20073;-59
2023/02/01 17:34:51;;;;;;;4.20;1.25;;;;;;;8.26;63.35;100604.69;10265159;28;20078;-60
2023/02/01 17:39:56;;;;;;;4.75;0.98;;;;;;;8.10;64.65;100608.06;10258964;28;20055;-59
2023/02/01 17:45:01;;;;;;;10.40;0.88;;;;;;;8.12;65.27;100609.59;10260474;28;20081;-60
2023/02/01 17:50:03;;;;;;;3.00;0.80;;;;;;;8.00;66.09;100621.53;10258995;28;20109;-60
2023/02/01 17:55:18;;;;;;;4.85;1.40;;;;;;;7.53;67.56;100630.56;10245210;28;20059;-59
2023/02/01 18:00:20;;;;;;;8.40;0.73;;;;;;;7.45;68.87;100634.97;10264437;28;20512;-60
2023/02/01 18:05:43;;;;;;;3.17;0.85;;;;;;;7.31;69.14;100633.63;10257200;28;20069;-59
2023/02/01 18:10:48;;;;;;;4.57;0.50;;;;;;;7.32;68.86;100629.97;10260482;28;20051;-59
2023/02/01 18:15:49;;;;;;;9.38;1.10;;;;;;;7.39;69.07;100648.94;10262502;28;20074;-59
2023/02/01 18:20:50;;;;;;;9.57;1.88;;;;;;;7.32;68.87;100632.63;10256295;28;20069;-59
2023/02/01 18:25:52;;;;;;;5.10;0.40;;;;;;;7.32;69.30;100628.13;10256899;28;20134;-60
2023/02/01 18:30:53;;;;;;;6.45;0.45;;;;;;;7.38;69.73;100634.72;10257348;28;20054;-58
2023/02/01 18:35:55;;;;;;;5.00;0.50;;;;;;;7.40;68.65;100629.22;10259499;28;20048;-60
2023/02/01 18:40:57;;;;;;;0.88;0.20;;;;;;;7.51;68.44;100639.72;10261474;28;20137;-59
2023/02/01 18:45:58;;;;;;;4.20;0.55;;;;;;;7.52;68.47;100633.38;10259133;28;20074;-60
2023/02/01 18:50:59;;;;;;;1.70;0.55;;;;;;;7.59;68.01;100649.69;10257569;28;20486;-60
2023/02/01 18:56:01;;;;;;;4.32;0.88;;;;;;;7.61;67.75;100661.91;10264167;28;20078;-60
2023/02/01 19:01:14;;;;;;;3.65;0.40;;;;;;;7.61;68.30;100653.88;10264230;28;20066;-59
2023/02/01 19:06:16;;;;;;;5.10;0.70;;;;;;;7.58;68.20;100648.00;10263691;28;20117;-60
2023/02/01 19:11:18;;;;;;;3.75;0.40;;;;;;;7.60;68.34;100649.50;10270693;28;20046;-60
2023/02/01 19:16:19;;;;;;;2.83;0.30;;;;;;;7.68;68.75;100638.06;10269621;28;20071;-60
2023/02/01 19:21:21;;;;;;;3.72;0.43;;;;;;;7.74;67.81;100638.31;10269113;28;20129;-60
2023/02/01 19:26:22;;;;;;;7.32;0.43;;;;;;;7.80;67.35;100630.69;10265301;28;20174;-60
2023/02/01 19:31:24;;;;;;;0.93;0.50;;;;;;;7.93;67.14;100642.69;10262980;28;20174;-59
2023/02/01 19:36:26;;;;;;;4.72;0.52;;;;;;;8.03;66.90;100652.50;10259772;28;20074;-60
2023/02/01 19:41:27;;;;;;;6.70;0.88;;;;;;;8.02;67.14;100653.50;10258343;28;20050;-60
2023/02/01 19:46:29;;;;;;;5.15;0.82;;;;;;;7.99;67.83;100659.16;10255132;28;20050;-60
2023/02/01 19:51:30;;;;;;;4.15;0.98;;;;;;;7.98;67.54;100661.00;10265505;28;20113;-60
2023/02/01 19:56:32;;;;;;;3.00;0.25;;;;;;;8.01;67.94;100676.75;10263891;28;20149;-61
2023/02/01 20:01:33;;;;;;;3.30;0.57;;;;;;;8.08;67.12;100645.69;10262360;28;20145;-60
2023/02/01 20:06:38;;;;;;;7.78;0.77;;;;;;;8.16;66.58;100650.28;10259783;28;20146;-60
2023/02/01 20:11:39;;;;;;;3.67;0.77;;;;;;;8.17;66.90;100654.63;10261614;28;20071;-59
2023/02/01 20:16:42;;;;;;;5.80;1.15;;;;;;;8.25;66.33;100643.16;10263275;28;20696;-60
2023/02/01 20:21:44;;;;;;;3.55;0.82;;;;;;;8.30;66.12;100633.69;10269313;28;20055;-60
2023/02/01 20:26:47;;;;;;;4.60;0.95;;;;;;;8.37;66.14;100639.25;10261178;28;20114;-59
2023/02/01 20:31:49;;;;;;;3.08;0.30;;;;;;;8.41;65.58;100637.09;10259878;28;20524;-60
2023/02/01 20:36:50;;;;;;;3.60;0.60;;;;;;;8.48;65.02;100668.53;10256432;28;20147;-61
2023/02/01 20:41:52;;;;;;;1.05;0.50;;;;;;;8.59;64.43;100637.13;10258095;28;20067;-61
2023/02/01 20:46:53;;;;;;;0.75;0.40;;;;;;;8.60;64.21;100653.03;10262291;28;20134;-60
2023/02/01 20:51:56;;;;;;;2.65;1.05;;;;;;;8.58;64.13;100640.81;10253485;28;20081;-61
2023/02/01 20:56:57;;;;;;;1.80;0.40;;;;;;;8.60;64.19;100625.41;10256491;28;20122;-60
2023/02/01 21:02:00;;;;;;;3.45;0.50;;;;;;;8.63;63.65;100630.44;10261799;28;20051;-60
2023/02/01 21:07:02;;;;;;;9.27;1.05;;;;;;;8.66;63.34;100632.81;10260038;28;20617;-61
2023/02/01 21:12:03;;;;;;;6.15;0.50;;;;;;;8.71;63.35;100636.72;10236232;28;20132;-62
2023/02/01 21:17:05;;;;;;;7.18;0.70;;;;;;;8.68;62.97;100628.97;10261855;28;20432;-60
2023/02/01 21:22:07;;;;;;;4.15;0.75;;;;;;;8.71;62.80;100634.03;10257767;28;20129;-61
2023/02/01 21:27:08;;;;;;;2.70;0.60;;;;;;;8.75;63.18;100642.59;10254767;28;20515;-60
2023/02/01 21:32:10;;;;;;;4.72;0.98;;;;;;;8.78;62.27;100642.28;10253675;28;20051;-61
2023/02/01 21:37:11;;;;;;;8.88;1.17;;;;;;;8.79;62.80;100643.97;10257343;28;20063;-61
2023/02/01 21:42:13;;;;;;;5.13;0.50;;;;;;;8.79;62.81;100649.34;10259771;28;20134;-61
2023/02/01 21:47:16;;;;;;;4.60;0.85;;;;;;;8.82;62.47;100656.22;10256041;28;20125;-61
2023/02/01 21:52:18;;;;;;;9.32;1.33;;;;;;;8.82;62.02;100653.53;10249713;28;20081;-60
2023/02/01 21:57:19;;;;;;;8.38;1.38;;;;;;;8.85;62.62;100666.63;10256975;28;20073;-60
2023/02/01 22:02:21;;;;;;;5.90;0.70;;;;;;;8.81;62.36;100658.06;10254584;28;20051;-60
2023/02/01 22:07:22;;;;;;;7.18;1.45;;;;;;;8.83;62.83;100672.16;10253494;28;20083;-61
2023/02/01 22:12:24;;;;;;;4.40;0.80;;;;;;;8.95;62.60;100674.59;10257795;28;20202;-61
2023/02/01 22:17:26;;;;;;;5.78;1.33;;;;;;;8.96;62.02;100681.59;10257633;28;20073;-60
2023/02/01 22:22:28;;;;;;;4.78;0.75;;;;;;;9.00;62.35;100681.13;10259274;28;20083;-61
2023/02/01 22:27:31;;;;;;;6.05;1.00;;;;;;;9.08;61.53;100691.06;10259754;28;20155;-60
2023/02/01 22:32:53;;;;;;;5.45;0.90;;;;;;;8.86;62.26;100674.50;10253333;28;20655;-61
2023/02/01 22:37:54;;;;;;;3.67;1.13;;;;;;;8.84;62.97;100684.53;10257077;28;20047;-60
2023/02/01 22:42:55;;;;;;;5.35;0.80;;;;;;;8.88;63.06;100677.88;10266054;28;20424;-62
2023/02/01 22:47:56;;;;;;;6.63;1.00;;;;;;;8.83;63.16;100680.19;10264512;28;20126;-60
2023/02/01 22:52:58;;;;;;;3.88;0.40;;;;;;;8.75;63.81;100680.13;10264597;28;20146;-60
2023/02/01 22:58:00;;;;;;;4.97;0.52;;;;;;;8.82;63.52;100681.16;10266573;28;20066;-60
2023/02/01 23:03:01;;;;;;;2.58;0.60;;;;;;;8.86;63.72;100689.75;10265713;28;20074;-60
2023/02/01 23:08:02;;;;;;;5.30;1.08;;;;;;;8.90;63.52;100680.41;10265382;28;20047;-60
2023/02/01 23:13:04;;;;;;;6.05;0.57;;;;;;;8.91;64.11;100682.09;10263743;28;20052;-59
2023/02/01 23:18:05;;;;;;;2.20;0.50;;;;;;;8.90;63.60;100683.91;10265353;28;20086;-60
2023/02/01 23:23:06;;;;;;;3.65;0.63;;;;;;;8.95;63.48;100682.63;10267570;28;20086;-59
2023/02/01 23:28:08;;;;;;;2.30;0.57;;;;;;;8.98;63.81;100693.84;10261923;28;20661;-60
2023/02/01 23:33:09;;;;;;;5.90;1.05;;;;;;;9.03;63.56;100688.03;10263311;28;20074;-59
2023/02/01 23:38:10;;;;;;;5.50;0.60;;;;;;;9.06;63.33;100682.34;10262733;28;20130;-61
2023/02/01 23:48:31;;;;;;;4.55;1.33;;;;;;;9.03;63.67;100682.66;10256485;28;20089;-60
2023/02/01 23:53:33;;;;;;;5.88;0.82;;;;;;;9.02;63.86;100680.97;10257620;28;20078;-61
2023/02/01 23:58:35;;;;;;;3.88;0.70;;;;;;;8.98;63.63;100693.84;10260791;28;20086;-59
